Time;durP1;ratioP1;P1;durP2;ratioP2;P2;SDS_P1;SDS_P2;PMS_P1;PMS_P2;Temp;Humidity;BMP_temperature;BMP_pressure;BME280_temperature;BME280_humidity;BME280_pressure;Samples;Min_cycle;Max_cycle;Signal;HPM_P1;HPM_P2
2021/09/10 00:00:34;;;;;;;98.22;38.53;;;;;;;10.20;100.00;101496.61;1627004;87;20849;-89
2021/09/10 00:03:00;;;;;;;106.78;38.92;;;;;;;10.17;100.00;101501.12;1643236;86;21004;-89
2021/09/10 00:05:26;;;;;;;103.05;37.23;;;;;;;10.16;100.00;101498.95;1629000;86;21153;-89
2021/09/10 00:07:52;;;;;;;103.90;37.65;;;;;;;10.12;100.00;101497.80;1648908;86;21042;-89
2021/09/10 00:10:18;;;;;;;111.90;38.15;;;;;;;10.09;100.00;101498.27;1648602;87;20927;-89
2021/09/10 00:12:43;;;;;;;99.55;38.48;;;;;;;10.03;100.00;101493.82;1648602;86;20896;-89
2021/09/10 00:15:11;;;;;;;97.08;34.23;;;;;;;10.00;100.00;101493.76;1648650;87;20991;-90
2021/09/10 00:17:37;;;;;;;101.50;37.65;;;;;;;10.01;100.00;101493.23;1648616;85;21153;-91
2021/09/10 00:20:04;;;;;;;100.20;36.35;;;;;;;10.03;100.00;101488.94;1648491;87;20940;-90
2021/09/10 00:22:30;;;;;;;104.72;38.40;;;;;;;10.04;100.00;101490.06;1648324;87;21444;-90
2021/09/10 00:24:56;;;;;;;96.75;36.48;;;;;;;10.04;100.00;101486.56;1648992;86;20959;-89
2021/09/10 00:27:22;;;;;;;100.92;36.75;;;;;;;10.01;100.00;101487.31;1648717;87;20928;-89
2021/09/10 00:29:48;;;;;;;100.12;37.35;;;;;;;9.99;100.00;101489.41;1648682;87;21091;-90
2021/09/10 00:32:14;;;;;;;113.42;38.88;;;;;;;9.94;100.00;101489.30;1648249;87;21007;-90
2021/09/10 00:34:40;;;;;;;99.90;36.03;;;;;;;9.92;100.00;101488.71;1648316;87;20970;-90
2021/09/10 00:37:06;;;;;;;106.12;36.88;;;;;;;9.93;100.00;101485.48;1648523;86;20876;-90
2021/09/10 00:39:32;;;;;;;92.75;33.95;;;;;;;9.93;100.00;101501.64;1648596;87;21499;-90
2021/09/10 00:41:58;;;;;;;98.25;37.00;;;;;;;9.87;100.00;101498.01;1648703;87;21096;-90
2021/09/10 00:44:23;;;;;;;104.50;37.83;;;;;;;9.86;100.00;101499.06;1648539;87;20876;-90
2021/09/10 00:46:50;;;;;;;102.78;40.45;;;;;;;9.91;100.00;101501.89;1648552;87;21581;-89
2021/09/10 00:49:16;;;;;;;123.60;40.73;;;;;;;9.94;100.00;101500.08;1648458;87;21511;-88
2021/09/10 00:51:41;;;;;;;129.75;42.27;;;;;;;9.98;100.00;101491.81;1648725;87;20935;-89
2021/09/10 00:54:08;;;;;;;117.62;40.30;;;;;;;9.99;100.00;101495.32;1648700;87;21146;-89
2021/09/10 00:56:34;;;;;;;103.55;37.38;;;;;;;9.99;100.00;101491.28;1648530;87;20984;-89
2021/09/10 00:59:00;;;;;;;108.42;39.53;;;;;;;9.98;100.00;101489.12;1648493;87;20987;-89
2021/09/10 01:01:27;;;;;;;114.20;39.38;;;;;;;9.98;100.00;101490.47;1648240;87;21499;-90
2021/09/10 01:03:53;;;;;;;105.92;40.17;;;;;;;9.94;100.00;101487.96;1648390;87;21566;-89
2021/09/10 01:06:22;;;;;;;118.87;39.73;;;;;;;9.96;100.00;101483.14;1648551;87;21194;-89
2021/09/10 01:08:49;;;;;;;107.07;38.90;;;;;;;10.00;100.00;101487.56;1648501;87;21012;-90
2021/09/10 01:11:17;;;;;;;110.00;39.60;;;;;;;10.01;100.00;101485.96;1648751;87;21059;-91
2021/09/10 01:13:43;;;;;;;99.32;36.90;;;;;;;9.98;100.00;101486.43;1645767;85;21099;-90
2021/09/10 01:16:09;;;;;;;105.22;38.00;;;;;;;9.91;100.00;101485.73;1641064;86;21031;-89
2021/09/10 01:18:35;;;;;;;114.95;38.55;;;;;;;9.90;100.00;101479.22;1641580;86;21152;-89
2021/09/10 01:21:01;;;;;;;107.22;38.73;;;;;;;9.92;100.00;101479.29;1641815;87;20982;-90
2021/09/10 01:23:27;;;;;;;106.20;38.98;;;;;;;9.90;100.00;101477.87;1641780;87;20923;-88
2021/09/10 01:25:53;;;;;;;100.92;36.15;;;;;;;9.86;100.00;101476.19;1641774;86;20892;-88
2021/09/10 01:28:19;;;;;;;93.15;35.00;;;;;;;9.82;100.00;101480.38;1641504;87;21672;-89
2021/09/10 01:30:44;;;;;;;80.12;31.45;;;;;;;9.81;100.00;101476.59;1641867;87;21129;-88
2021/09/10 01:33:11;;;;;;;85.72;31.87;;;;;;;9.78;100.00;101480.03;1641422;86;20928;-88
2021/09/10 01:35:38;;;;;;;83.62;29.52;;;;;;;9.77;100.00;101477.05;1641906;87;21062;-88
2021/09/10 01:38:06;;;;;;;73.65;27.15;;;;;;;9.79;100.00;101476.80;1641853;87;21050;-89
2021/09/10 01:40:33;;;;;;;77.62;29.42;;;;;;;9.81;100.00;101479.28;1641624;87;21002;-88
2021/09/10 01:42:59;;;;;;;73.42;27.62;;;;;;;9.78;100.00;101475.99;1641741;87;21327;-89
2021/09/10 01:45:25;;;;;;;68.40;26.25;;;;;;;9.82;100.00;101474.17;1641500;87;21007;-89
2021/09/10 01:47:51;;;;;;;73.22;23.30;;;;;;;9.84;100.00;101474.77;1641571;86;20971;-89
2021/09/10 01:50:20;;;;;;;64.60;23.40;;;;;;;9.70;100.00;101439.17;1641593;87;21518;-90
2021/09/10 01:52:47;;;;;;;52.25;20.57;;;;;;;9.84;100.00;101470.73;1639972;87;21086;-89
2021/09/10 01:55:14;;;;;;;65.25;23.25;;;;;;;9.79;100.00;101467.38;1641686;86;21089;-89
2021/09/10 01:57:44;;;;;;;60.65;22.20;;;;;;;9.77;100.00;101470.33;1641853;87;21057;-88
2021/09/10 02:00:11;;;;;;;60.10;21.82;;;;;;;9.75;100.00;101457.61;1657871;84;21551;-88
2021/09/10 02:02:37;;;;;;;66.95;21.62;;;;;;;9.71;100.00;101458.33;1671358;84;21211;-89
2021/09/10 02:05:03;;;;;;;53.10;21.77;;;;;;;9.68;100.00;101464.18;1682797;85;20913;-90
2021/09/10 02:07:29;;;;;;;67.08;23.10;;;;;;;9.67;100.00;101457.95;1682767;84;21167;-89
2021/09/10 02:09:55;;;;;;;56.15;21.55;;;;;;;9.69;100.00;101459.89;1682528;83;21649;-89
2021/09/10 02:12:21;;;;;;;64.45;22.45;;;;;;;9.69;100.00;101457.73;1682728;84;20854;-89
2021/09/10 02:14:47;;;;;;;59.53;22.80;;;;;;;9.69;100.00;101456.39;1680558;84;20889;-88
2021/09/10 02:17:13;;;;;;;56.42;22.27;;;;;;;9.69;100.00;101454.52;1681912;85;21196;-89
2021/09/10 02:19:39;;;;;;;60.70;21.40;;;;;;;9.69;100.00;101463.93;1682235;85;21976;-89
2021/09/10 02:22:14;;;;;;;52.67;20.90;;;;;;;9.69;100.00;101446.97;1682233;84;20893;-90
2021/09/10 02:24:40;;;;;;;55.17;21.55;;;;;;;9.70;100.00;101448.59;1679638;85;21056;-89
2021/09/10 02:27:06;;;;;;;54.30;20.85;;;;;;;9.72;100.00;101448.66;1680928;85;21626;-89
2021/09/10 02:29:32;;;;;;;58.13;21.52;;;;;;;9.70;100.00;101449.41;1679961;85;20980;-89
2021/09/10 02:31:58;;;;;;;57.48;19.32;;;;;;;9.62;100.00;101447.09;1678682;84;21005;-89
2021/09/10 02:34:24;;;;;;;55.17;21.15;;;;;;;9.55;100.00;101443.66;1681813;85;21084;-90
2021/09/10 02:36:50;;;;;;;50.23;19.17;;;;;;;9.51;100.00;101447.35;1681921;85;20957;-90
2021/09/10 02:39:16;;;;;;;53.20;19.17;;;;;;;9.51;100.00;101455.42;1680013;85;20873;-91
2021/09/10 02:41:42;;;;;;;43.10;18.15;;;;;;;9.48;100.00;101453.20;1681008;85;21091;-90
2021/09/10 02:44:09;;;;;;;49.05;18.85;;;;;;;9.45;100.00;101460.38;1682596;84;21102;-90
2021/09/10 02:46:38;;;;;;;54.90;18.57;;;;;;;9.39;100.00;101463.19;1681637;85;21052;-90
2021/09/10 02:49:05;;;;;;;68.40;18.70;;;;;;;9.31;100.00;101465.14;1680155;85;21598;-89
2021/09/10 02:51:31;;;;;;;41.75;16.73;;;;;;;9.22;100.00;101464.36;1674153;85;21579;-89
2021/09/10 02:53:58;;;;;;;45.20;17.92;;;;;;;9.20;100.00;101465.91;1681968;85;22125;-91
2021/09/10 02:56:23;;;;;;;42.00;16.97;;;;;;;9.19;100.00;101466.16;1679917;85;21133;-89
2021/09/10 02:58:50;;;;;;;40.92;16.05;;;;;;;9.18;100.00;101472.60;1680802;85;20893;-88
2021/09/10 03:01:16;;;;;;;45.28;17.57;;;;;;;9.16;100.00;101473.34;1681615;85;20961;-88
2021/09/10 03:03:42;;;;;;;46.70;16.73;;;;;;;9.14;100.00;101466.84;1682309;85;21500;-88
2021/09/10 03:06:08;;;;;;;40.23;15.75;;;;;;;9.09;100.00;101470.23;1682667;85;20897;-88
2021/09/10 03:08:34;;;;;;;45.10;15.38;;;;;;;9.03;100.00;101473.83;1672169;85;21083;-88
2021/09/10 03:11:00;;;;;;;48.92;16.35;;;;;;;9.03;100.00;101470.30;1682795;85;21009;-88
2021/09/10 03:13:26;;;;;;;41.35;16.37;;;;;;;9.00;100.00;101472.94;1682496;85;21551;-88
2021/09/10 03:15:52;;;;;;;48.45;16.95;;;;;;;8.98;100.00;101468.84;1683185;84;20878;-88
2021/09/10 03:18:18;;;;;;;47.58;17.45;;;;;;;8.94;100.00;101468.48;1683283;84;20913;-88
2021/09/10 03:20:47;;;;;;;42.43;16.35;;;;;;;8.93;100.00;101466.81;1682427;85;21149;-89
2021/09/10 03:23:13;;;;;;;37.28;15.65;;;;;;;8.93;100.00;101468.69;1682814;85;21036;-89
2021/09/10 03:25:39;;;;;;;39.15;16.45;;;;;;;8.92;100.00;101476.47;1682952;85;20976;-89
2021/09/10 03:28:04;;;;;;;45.70;16.95;;;;;;;8.95;100.00;101471.45;1682734;85;20956;-89
2021/09/10 03:30:30;;;;;;;47.35;16.95;;;;;;;9.00;100.00;101470.25;1682578;85;20980;-88
2021/09/10 03:32:56;;;;;;;44.98;16.77;;;;;;;9.05;100.00;101476.27;1682293;85;21864;-89
2021/09/10 03:35:22;;;;;;;46.60;16.62;;;;;;;9.12;100.00;101478.86;1683313;85;20940;-88
2021/09/10 03:37:48;;;;;;;45.85;16.48;;;;;;;9.20;100.00;101470.48;1683096;85;21043;-88
2021/09/10 03:40:14;;;;;;;50.35;17.23;;;;;;;9.27;100.00;101469.88;1682440;85;20943;-87
2021/09/10 03:42:40;;;;;;;40.28;15.70;;;;;;;9.38;100.00;101471.75;1671607;85;21503;-89
2021/09/10 03:45:08;;;;;;;37.67;14.95;;;;;;;9.49;100.00;101475.00;1682578;84;21067;-89
2021/09/10 03:47:34;;;;;;;42.55;16.55;;;;;;;9.60;100.00;101478.78;1683106;85;21043;-88
2021/09/10 03:50:03;;;;;;;37.90;15.90;;;;;;;9.69;100.00;101472.53;1682291;84;21669;-89
2021/09/10 03:52:29;;;;;;;38.48;15.75;;;;;;;9.81;100.00;101469.33;1682750;84;21587;-89
2021/09/10 03:54:55;;;;;;;45.30;16.50;;;;;;;9.93;100.00;101466.11;1682937;84;21005;-88
2021/09/10 03:57:21;;;;;;;48.45;16.70;;;;;;;10.08;100.00;101458.09;1683158;84;21071;-88
2021/09/10 03:59:47;;;;;;;43.08;16.85;;;;;;;10.26;100.00;101465.22;1682630;85;20963;-88
2021/09/10 04:02:12;;;;;;;42.93;15.68;;;;;;;10.38;100.00;101467.39;1682035;85;21016;-88
2021/09/10 04:04:38;;;;;;;35.00;15.18;;;;;;;10.51;100.00;101464.98;1678983;84;20934;-88
2021/09/10 04:07:04;;;;;;;42.40;14.80;;;;;;;10.68;100.00;101466.70;1677481;84;21434;-88
2021/09/10 04:09:30;;;;;;;34.70;14.18;;;;;;;11.27;100.00;101467.81;1683034;84;21164;-87
2021/09/10 04:11:56;;;;;;;38.58;15.35;;;;;;;12.12;100.00;101462.42;1692516;84;21040;-88
2021/09/10 04:14:21;;;;;;;42.23;15.00;;;;;;;12.93;100.00;101459.39;1677902;84;20906;-88
2021/09/10 04:16:47;;;;;;;36.93;13.93;;;;;;;13.85;100.00;101454.00;1679374;84;20906;-91
2021/09/10 04:19:13;;;;;;;34.67;14.63;;;;;;;14.83;100.00;101457.52;1678548;84;21072;-91
2021/09/10 04:21:39;;;;;;;35.17;13.70;;;;;;;15.75;100.00;101453.56;1677488;84;21154;-91
2021/09/10 04:24:05;;;;;;;36.68;14.70;;;;;;;16.53;100.00;101449.55;1677314;84;20848;-90
2021/09/10 04:26:30;;;;;;;41.23;14.45;;;;;;;17.20;100.00;101456.28;1677490;85;20998;-90
2021/09/10 04:28:56;;;;;;;34.38;14.55;;;;;;;17.98;100.00;101452.41;1679060;84;20940;-90
2021/09/10 04:31:22;;;;;;;46.13;15.45;;;;;;;18.76;100.00;101444.39;1678290;84;20899;-87
2021/09/10 04:33:48;;;;;;;35.63;14.13;;;;;;;19.36;100.00;101445.98;1683062;84;21572;-89
2021/09/10 04:36:15;;;;;;;32.25;14.03;;;;;;;19.98;100.00;101445.75;1682553;84;20958;-89
2021/09/10 04:38:42;;;;;;;40.55;15.60;;;;;;;20.70;100.00;101451.98;1670801;85;21061;-90
2021/09/10 04:41:08;;;;;;;34.75;14.95;;;;;;;21.36;100.00;101455.71;1678790;84;21042;-91
2021/09/10 04:43:34;;;;;;;42.23;15.95;;;;;;;21.93;96.78;101458.09;1677517;84;21730;-91
2021/09/10 04:45:59;;;;;;;40.80;14.78;;;;;;;22.64;86.77;101442.92;1679879;84;21092;-90
2021/09/10 04:48:25;;;;;;;36.38;15.00;;;;;;;23.08;83.02;101441.05;1677389;85;20875;-90
2021/09/10 04:50:51;;;;;;;40.43;15.78;;;;;;;23.59;76.82;101439.96;1677574;84;21014;-90
2021/09/10 04:53:17;;;;;;;41.08;14.65;;;;;;;24.10;72.33;101444.27;1677287;84;20969;-90
2021/09/10 04:55:43;;;;;;;36.75;14.83;;;;;;;24.73;67.40;101440.28;1677199;85;20899;-91
2021/09/10 04:58:09;;;;;;;34.95;16.12;;;;;;;25.51;63.92;101439.64;1679584;84;21044;-91
2021/09/10 05:00:35;;;;;;;38.02;15.32;;;;;;;26.33;58.12;101442.41;1680044;84;20965;-90
2021/09/10 05:03:01;;;;;;;35.58;15.13;;;;;;;26.72;55.34;101435.93;1679265;84;20911;-90
2021/09/10 05:05:27;;;;;;;34.43;15.65;;;;;;;27.25;51.74;101431.75;1682519;84;21009;-90
2021/09/10 05:07:54;;;;;;;42.27;15.58;;;;;;;27.54;49.69;101433.33;1683175;84;21049;-90
2021/09/10 05:10:20;;;;;;;36.30;15.30;;;;;;;28.11;48.76;101432.61;1681598;84;21193;-89
2021/09/10 05:12:47;;;;;;;40.92;16.85;;;;;;;28.52;47.50;101440.34;1681969;85;21008;-89
2021/09/10 05:15:13;;;;;;;37.55;16.23;;;;;;;29.02;45.79;101434.27;1683599;85;21020;-88
2021/09/10 05:17:39;;;;;;;40.35;16.67;;;;;;;29.34;45.45;101432.94;1683740;83;21071;-88
2021/09/10 05:20:08;;;;;;;44.30;18.20;;;;;;;29.82;44.21;101429.26;1682914;84;21632;-88
2021/09/10 05:22:35;;;;;;;44.95;17.98;;;;;;;30.31;41.54;101433.25;1683112;85;21248;-88
2021/09/10 05:25:02;;;;;;;41.20;17.77;;;;;;;30.93;41.40;101433.72;1682688;85;20980;-88
2021/09/10 05:27:28;;;;;;;39.92;17.48;;;;;;;31.64;37.68;101423.95;1684084;85;21579;-88
2021/09/10 05:29:54;;;;;;;39.58;17.75;;;;;;;31.63;36.95;101420.97;1683194;84;20897;-87
2021/09/10 05:32:20;;;;;;;36.33;17.23;;;;;;;31.98;37.47;101417.51;1683743;84;21020;-87
2021/09/10 05:34:46;;;;;;;50.85;18.45;;;;;;;32.44;37.04;101423.97;1669825;83;22004;-88
2021/09/10 05:37:11;;;;;;;49.05;19.87;;;;;;;32.85;35.68;101420.41;1682090;83;20916;-89
2021/09/10 05:39:37;;;;;;;54.77;20.37;;;;;;;33.28;34.78;101419.19;1686544;83;20916;-88
2021/09/10 05:42:03;;;;;;;46.42;20.57;;;;;;;33.76;34.63;101415.27;1685803;83;20978;-88
2021/09/10 05:44:30;;;;;;;55.35;20.68;;;;;;;34.87;31.11;101401.06;1668553;84;21554;-88
2021/09/10 05:46:55;;;;;;;57.03;22.30;;;;;;;34.87;31.11;101401.06;1698918;84;21177;-89
2021/09/10 05:49:21;;;;;;;58.73;22.98;;;;;;;35.01;29.84;101417.19;1698649;84;21717;-88
2021/09/10 05:51:47;;;;;;;64.15;23.20;;;;;;;34.92;30.31;101416.84;1698786;84;20985;-88
2021/09/10 05:54:13;;;;;;;59.50;22.85;;;;;;;35.12;29.81;101420.55;1698743;84;20877;-88
2021/09/10 05:56:39;;;;;;;57.20;22.90;;;;;;;35.33;29.79;101418.21;1702437;84;20905;-89
2021/09/10 05:59:05;;;;;;;52.45;23.25;;;;;;;35.81;27.68;101421.09;1707916;84;21932;-88
2021/09/10 06:01:31;;;;;;;54.27;22.52;;;;;;;36.45;27.15;101416.87;1707888;84;20964;-88
2021/09/10 06:03:56;;;;;;;57.45;24.57;;;;;;;36.99;27.80;101419.81;1707771;84;20944;-88
2021/09/10 06:06:23;;;;;;;53.28;23.18;;;;;;;37.46;26.88;101418.55;1707732;84;20912;-88
2021/09/10 06:08:49;;;;;;;53.02;22.80;;;;;;;38.04;25.85;101413.41;1708006;83;21075;-88
2021/09/10 06:11:15;;;;;;;49.85;22.30;;;;;;;38.53;26.16;101410.86;1707843;84;21131;-88
2021/09/10 06:13:41;;;;;;;44.65;23.02;;;;;;;38.89;25.16;101414.34;1711594;83;20951;-88
2021/09/10 06:16:15;;;;;;;52.60;22.60;;;;;;;39.20;24.71;101412.04;1707853;84;21250;-88
2021/09/10 06:18:41;;;;;;;45.35;21.62;;;;;;;39.73;24.38;101409.95;1707786;84;21574;-88
2021/09/10 06:21:07;;;;;;;44.73;21.33;;;;;;;40.30;23.12;101407.66;1708011;84;20869;-88
2021/09/10 06:23:33;;;;;;;49.03;22.05;;;;;;;40.52;22.00;101408.64;1707711;84;21196;-87
2021/09/10 06:25:59;;;;;;;47.33;20.52;;;;;;;40.80;21.64;101414.10;1686552;84;20959;-87
2021/09/10 06:28:25;;;;;;;39.40;20.70;;;;;;;41.22;21.68;101415.44;1707985;84;20952;-88
2021/09/10 06:30:51;;;;;;;42.40;20.55;;;;;;;41.22;21.50;101412.61;1691525;84;20877;-88
2021/09/10 06:33:18;;;;;;;40.80;20.50;;;;;;;41.28;20.60;101414.25;1684285;83;21118;-88
2021/09/10 06:35:44;;;;;;;41.20;20.72;;;;;;;40.68;21.01;101412.66;1690865;83;21203;-88
2021/09/10 06:38:10;;;;;;;36.25;19.32;;;;;;;40.87;21.11;101411.67;1707531;83;21551;-88
2021/09/10 06:40:37;;;;;;;39.78;19.85;;;;;;;41.47;21.01;101420.30;1670144;84;20964;-88
2021/09/10 06:43:03;;;;;;;45.10;20.37;;;;;;;41.87;21.08;101417.55;1648249;85;21083;-88
2021/09/10 06:45:29;;;;;;;39.05;20.45;;;;;;;42.17;21.20;101416.88;1648458;86;21089;-88
2021/09/10 06:47:55;;;;;;;38.88;20.08;;;;;;;42.58;20.88;101414.20;1625440;87;21790;-88
2021/09/10 06:50:21;;;;;;;36.93;19.05;;;;;;;43.00;20.22;101418.06;1619562;87;20927;-88
2021/09/10 06:52:47;;;;;;;36.28;19.73;;;;;;;43.44;20.15;101415.86;1648465;86;21663;-88
2021/09/10 06:55:12;;;;;;;35.65;20.10;;;;;;;43.90;19.66;101420.86;1648054;86;21593;-88
2021/09/10 06:57:40;;;;;;;41.20;21.50;;;;;;;44.25;18.86;101424.19;1648432;86;20896;-88
2021/09/10 07:00:07;;;;;;;36.05;20.15;;;;;;;44.36;18.53;101420.86;1648179;86;21104;-88
2021/09/10 07:02:34;;;;;;;32.10;20.68;;;;;;;44.36;18.53;101422.28;1647758;86;21038;-88
2021/09/10 07:05:00;;;;;;;32.38;20.25;;;;;;;44.40;18.31;101427.98;1648130;86;21030;-88
2021/09/10 07:07:26;;;;;;;31.65;19.17;;;;;;;44.39;19.29;101424.20;1647898;87;20953;-88
2021/09/10 07:09:51;;;;;;;33.98;20.57;;;;;;;44.53;18.58;101424.94;1647338;86;21676;-89
2021/09/10 07:12:19;;;;;;;34.90;19.67;;;;;;;44.75;18.23;101422.56;1647327;85;21101;-89
2021/09/10 07:14:45;;;;;;;36.90;21.37;;;;;;;44.97;18.25;101417.39;1672188;85;21508;-88
2021/09/10 07:17:11;;;;;;;32.40;19.87;;;;;;;45.16;17.96;101418.14;1677446;85;21015;-89
2021/09/10 07:19:37;;;;;;;36.17;21.00;;;;;;;45.43;17.98;101414.98;1631850;86;20943;-89
2021/09/10 07:22:03;;;;;;;35.15;21.15;;;;;;;45.66;17.72;101416.28;1654595;86;21388;-89
2021/09/10 07:24:29;;;;;;;37.45;20.20;;;;;;;45.67;17.48;101409.30;1654526;86;21112;-90
2021/09/10 07:26:55;;;;;;;33.95;20.62;;;;;;;45.66;17.07;101407.73;1647759;86;21007;-89
2021/09/10 07:31:55;;;;;;;34.25;19.75;;;;;;;45.60;17.58;101408.26;1594429;90;21125;-89
2021/09/10 07:34:21;;;;;;;31.97;19.50;;;;;;;46.01;17.35;101406.52;1594485;90;21030;-89
2021/09/10 07:36:52;;;;;;;32.00;18.87;;;;;;;45.98;17.04;101400.38;1601193;89;20999;-89
2021/09/10 07:39:20;;;;;;;30.12;17.73;;;;;;;45.97;17.27;101399.56;1595710;90;21506;-88
2021/09/10 07:41:47;;;;;;;20.62;15.25;;;;;;;46.13;17.34;101396.12;1600470;88;20996;-89
2021/09/10 07:44:17;;;;;;;23.83;17.02;;;;;;;46.75;15.85;101400.87;1634536;86;21055;-90
2021/09/10 07:46:45;;;;;;;25.70;18.30;;;;;;;46.75;15.64;101401.52;1639621;86;21019;-88
2021/09/10 07:49:12;;;;;;;22.93;16.40;;;;;;;46.45;15.89;101397.23;1652948;85;21092;-89
2021/09/10 07:51:38;;;;;;;23.05;17.42;;;;;;;46.43;16.00;101394.86;1652909;86;21686;-89
2021/09/10 07:54:05;;;;;;;25.97;16.45;;;;;;;46.94;15.61;101397.77;1652906;86;21012;-89
2021/09/10 07:56:31;;;;;;;22.87;15.72;;;;;;;47.06;15.41;101394.60;1652791;86;21044;-88
2021/09/10 07:58:57;;;;;;;26.37;15.63;;;;;;;47.07;15.60;101397.62;1652846;86;20944;-89
2021/09/10 08:01:23;;;;;;;19.67;16.17;;;;;;;47.44;15.21;101393.45;1652577;86;21071;-88
2021/09/10 08:03:49;;;;;;;21.35;16.30;;;;;;;47.57;14.82;101391.04;1638980;86;21557;-88
2021/09/10 08:06:15;;;;;;;20.40;15.93;;;;;;;47.68;14.79;101388.94;1625526;87;20995;-88
2021/09/10 08:08:41;;;;;;;22.37;16.37;;;;;;;47.88;14.60;101386.08;1625742;88;21651;-88
2021/09/10 08:11:07;;;;;;;25.75;16.65;;;;;;;47.74;14.23;101389.17;1625698;88;21058;-88
2021/09/10 08:13:33;;;;;;;21.87;17.07;;;;;;;47.54;15.19;101380.62;1625773;88;21117;-89
2021/09/10 08:15:59;;;;;;;20.55;16.67;;;;;;;47.74;14.69;101382.02;1625807;88;21074;-88
2021/09/10 08:18:25;;;;;;;21.23;16.93;;;;;;;47.79;14.28;101379.10;1625818;88;21027;-88
2021/09/10 08:20:55;;;;;;;18.98;15.28;;;;;;;46.74;14.44;101383.58;1626177;88;21139;-88
2021/09/10 08:23:19;;;;;;;23.20;16.65;;;;;;;46.10;15.12;101376.50;1625472;88;21138;-88
2021/09/10 08:25:45;;;;;;;28.73;15.88;;;;;;;46.16;15.23;101375.18;1625672;88;21896;-87
2021/09/10 08:28:11;;;;;;;24.43;15.23;;;;;;;46.52;14.92;101371.80;1635248;85;20976;-87
2021/09/10 08:30:37;;;;;;;19.50;14.70;;;;;;;46.18;15.27;101366.29;1683214;83;20920;-87
2021/09/10 08:33:11;;;;;;;18.77;14.58;;;;;;;46.33;15.06;101368.36;1679288;84;20980;-88
2021/09/10 08:35:38;;;;;;;24.40;15.45;;;;;;;45.91;14.98;101364.48;1671391;85;21103;-87
2021/09/10 08:38:03;;;;;;;20.60;14.15;;;;;;;46.21;15.08;101364.49;1673455;85;21154;-87
2021/09/10 08:40:32;;;;;;;22.07;14.93;;;;;;;46.35;14.66;101361.53;1673353;85;21605;-88
2021/09/10 08:43:00;;;;;;;25.45;17.98;;;;;;;46.33;13.86;101354.91;1673190;85;21095;-88
2021/09/10 08:45:28;;;;;;;21.87;14.75;;;;;;;45.19;13.52;101352.34;1673455;85;21532;-88
2021/09/10 08:47:55;;;;;;;17.98;12.33;;;;;;;44.04;14.18;101356.97;1673736;85;21091;-86
2021/09/10 08:50:24;;;;;;;15.23;11.38;;;;;;;43.83;15.34;101349.53;1673511;85;21930;-87
2021/09/10 08:52:51;;;;;;;17.30;11.80;;;;;;;44.27;14.99;101356.29;1673196;85;21044;-87
2021/09/10 08:55:17;;;;;;;13.30;9.95;;;;;;;44.46;14.30;101348.52;1673536;85;21111;-88
2021/09/10 08:57:52;;;;;;;16.82;10.00;;;;;;;44.02;14.10;101349.54;1657888;85;21589;-88
2021/09/10 09:00:29;;;;;;;29.45;10.25;;;;;;;44.04;14.53;101345.59;1667469;85;21040;-88
2021/09/10 09:03:04;;;;;;;18.10;9.35;;;;;;;44.08;14.37;101343.38;1668710;86;22133;-87
2021/09/10 09:05:32;;;;;;;18.92;9.30;;;;;;;42.95;15.13;101343.49;1669176;85;21524;-88
2021/09/10 09:08:18;;;;;;;18.05;9.10;;;;;;;42.75;15.19;101334.77;1668532;86;21048;-87
2021/09/10 09:11:07;;;;;;;12.85;7.95;;;;;;;42.60;14.97;101328.07;1650028;86;21041;-87
2021/09/10 09:13:39;;;;;;;18.82;9.18;;;;;;;41.52;15.89;101332.61;1668861;86;21038;-88
2021/09/10 09:16:29;;;;;;;11.90;7.90;;;;;;;41.39;15.64;101321.31;1668728;86;21136;-89
2021/09/10 09:19:02;;;;;;;13.75;7.78;;;;;;;40.60;15.85;101318.16;1670667;84;21500;-86
2021/09/10 09:21:35;;;;;;;12.28;7.10;;;;;;;39.93;17.05;101313.88;1675898;85;21030;-86
2021/09/10 09:24:20;;;;;;;15.93;7.80;;;;;;;40.52;16.39;101310.36;1671967;85;21019;-87
2021/09/10 09:26:51;;;;;;;18.37;7.97;;;;;;;40.95;16.10;101309.04;1672199;85;21025;-89
2021/09/10 09:29:20;;;;;;;17.95;8.58;;;;;;;41.00;16.15;101307.81;1653493;85;21134;-89
2021/09/10 09:31:58;;;;;;;19.50;8.55;;;;;;;39.78;17.08;101312.07;1672178;85;21002;-88
2021/09/10 09:34:49;;;;;;;14.70;8.70;;;;;;;38.29;17.90;101315.77;1671851;85;21102;-88
2021/09/10 09:37:17;;;;;;;17.67;9.03;;;;;;;37.40;18.75;101305.56;1673095;84;21114;-88
2021/09/10 09:39:57;;;;;;;16.50;8.45;;;;;;;36.05;19.92;101301.42;1649788;85;20978;-89
2021/09/10 09:42:29;;;;;;;14.68;8.40;;;;;;;35.65;20.05;101294.60;1554065;91;21182;-88
2021/09/10 09:45:22;;;;;;;17.05;8.18;;;;;;;35.49;20.99;101269.91;1551161;92;21165;-87
2021/09/10 09:47:46;;;;;;;18.20;8.53;;;;;;;35.49;20.99;101269.91;1504158;95;21119;-88
2021/09/10 09:50:17;;;;;;;17.35;8.33;;;;;;;36.34;21.33;101285.02;1504616;95;21121;-87
2021/09/10 09:52:45;;;;;;;21.00;8.33;;;;;;;37.05;20.84;101280.42;1504905;95;21172;-88
2021/09/10 09:55:15;;;;;;;18.70;9.03;;;;;;;36.37;20.53;101281.37;1468488;95;21604;-89
2021/09/10 09:57:51;;;;;;;14.93;8.58;;;;;;;35.91;21.10;101284.09;1504602;94;21155;-89
2021/09/10 10:00:17;;;;;;;16.90;8.20;;;;;;;35.12;22.11;101284.64;1505845;93;21576;-87
2021/09/10 10:02:43;;;;;;;16.12;8.53;;;;;;;35.45;21.95;101281.16;1520477;93;21651;-89
2021/09/10 10:05:09;;;;;;;17.52;8.30;;;;;;;35.60;21.71;101281.05;1517388;94;21070;-84
2021/09/10 10:07:58;;;;;;;18.50;8.75;;;;;;;35.37;21.46;101278.23;1517317;94;21137;-84
2021/09/10 10:10:27;;;;;;;16.87;8.70;;;;;;;34.94;21.85;101279.14;1517492;94;21654;-85
2021/09/10 10:12:56;;;;;;;18.35;8.43;;;;;;;34.40;22.17;101275.86;1517334;94;21090;-85
2021/09/10 10:15:26;;;;;;;14.60;8.28;;;;;;;34.68;22.83;101274.91;1514464;93;21177;-85
2021/09/10 10:17:55;;;;;;;19.02;8.40;;;;;;;34.72;22.46;101266.70;1517097;93;20990;-85
2021/09/10 10:20:46;;;;;;;19.35;8.50;;;;;;;34.72;22.41;101269.49;1526311;91;21136;-85
2021/09/10 10:23:47;;;;;;;16.15;8.65;;;;;;;34.75;22.96;101258.08;1584074;88;20999;-86
2021/09/10 10:26:18;;;;;;;17.10;8.73;;;;;;;34.62;23.39;101261.94;1627607;88;21034;-85
2021/09/10 10:28:47;;;;;;;17.75;7.87;;;;;;;34.57;22.73;101255.39;1627532;88;21042;-84
2021/09/10 10:31:14;;;;;;;18.98;9.08;;;;;;;34.56;22.96;101262.18;1627622;88;21538;-86
2021/09/10 10:33:49;;;;;;;15.13;8.00;;;;;;;34.43;23.73;101261.05;1627655;88;21923;-86
2021/09/10 10:36:33;;;;;;;15.93;8.38;;;;;;;34.45;23.41;101252.44;1627168;88;21104;-86
2021/09/10 10:39:26;;;;;;;19.92;8.45;;;;;;;34.11;23.43;101253.59;1616448;86;21625;-84
2021/09/10 10:41:52;;;;;;;21.70;8.90;;;;;;;33.27;24.23;101247.15;1645363;86;21055;-84
2021/09/10 10:44:36;;;;;;;16.25;8.53;;;;;;;32.51;25.45;101251.82;1648983;85;21561;-85
2021/09/10 10:47:14;;;;;;;20.95;8.53;;;;;;;31.92;25.78;101246.98;1682504;84;21155;-85
2021/09/10 10:49:44;;;;;;;17.02;8.03;;;;;;;31.52;26.76;101241.72;1682410;84;21591;-85
2021/09/10 10:52:36;;;;;;;16.17;8.30;;;;;;;31.19;27.28;101239.86;1682283;84;21039;-86
2021/09/10 10:55:19;;;;;;;15.85;8.38;;;;;;;31.10;26.91;101234.63;1682648;84;20993;-86
2021/09/10 10:57:47;;;;;;;20.35;8.70;;;;;;;31.40;26.44;101231.69;1683287;84;21051;-84
2021/09/10 11:00:33;;;;;;;19.65;8.33;;;;;;;31.38;27.42;101226.30;1683924;84;21112;-84
2021/09/10 11:03:23;;;;;;;18.30;8.43;;;;;;;31.53;26.15;101225.20;1683408;84;21515;-85
2021/09/10 11:05:51;;;;;;;19.67;8.35;;;;;;;31.63;26.79;101226.48;1671367;84;21491;-86
2021/09/10 11:08:20;;;;;;;18.42;8.83;;;;;;;31.49;26.05;101219.42;1682464;85;20996;-85
2021/09/10 11:10:55;;;;;;;22.35;8.70;;;;;;;31.66;26.06;101215.34;1682289;84;21039;-85
2021/09/10 11:13:24;;;;;;;21.02;8.73;;;;;;;31.89;26.63;101203.13;1682351;85;21202;-86
2021/09/10 11:15:55;;;;;;;21.48;8.60;;;;;;;32.16;25.78;101202.26;1682163;84;21039;-85